createdAt,value
2018-09-06T00:00:55.619Z,84.81
2018-09-06T00:01:55.640Z,86.58
2018-09-06T00:02:55.658Z,85.92
2018-09-06T00:03:55.677Z,85.82
2018-09-06T00:04:55.702Z,86.68
2018-09-06T00:05:55.717Z,86.58
2018-09-06T00:06:55.736Z,85.72
2018-09-06T00:07:55.754Z,85.38
2018-09-06T00:08:55.774Z,86.21
2018-09-06T00:09:55.793Z,86.40
2018-09-06T00:10:55.811Z,86.30
2018-09-06T00:11:55.829Z,85.82
2018-09-06T00:12:55.850Z,86.49
2018-09-06T00:13:55.872Z,86.40
2018-09-06T00:14:55.889Z,85.92
2018-09-06T00:15:55.910Z,85.82
2018-09-06T00:16:55.929Z,84.91
2018-09-06T00:17:55.946Z,85.10
2018-09-06T00:18:55.968Z,84.42
2018-09-06T00:19:56.001Z,85.44
2018-09-06T00:20:56.005Z,85.72
2018-09-06T00:21:56.026Z,85.92
2018-09-06T00:22:56.043Z,85.72
2018-09-06T00:23:56.064Z,85.19
2018-09-06T00:24:56.086Z,84.91
2018-09-06T00:25:56.102Z,84.33
2018-09-06T00:26:56.137Z,84.91
2018-09-06T00:27:56.142Z,85.53
2018-09-06T00:28:56.164Z,85.34
2018-09-06T00:29:56.182Z,85.34
2018-09-06T00:30:56.200Z,85.10
2018-09-06T00:31:56.217Z,84.33
2018-09-06T00:32:56.235Z,83.47
2018-09-06T00:33:56.259Z,84.04
2018-09-06T00:34:56.280Z,84.61
2018-09-06T00:35:56.297Z,85.34
2018-09-06T00:36:56.315Z,85.72
2018-09-06T00:37:56.335Z,85.82
2018-09-06T00:38:56.353Z,85.15
2018-09-06T00:39:56.377Z,85.72
2018-09-06T00:40:56.396Z,85.25
2018-09-06T00:41:56.412Z,86.54
2018-09-06T00:42:56.431Z,86.78
2018-09-06T00:43:56.458Z,86.97
2018-09-06T00:44:56.472Z,87.31
2018-09-06T00:45:56.497Z,88.37
2018-09-06T00:46:56.509Z,87.31
2018-09-06T00:47:56.526Z,87.02
2018-09-06T00:48:56.545Z,87.31
2018-09-06T00:49:56.566Z,87.70
2018-09-06T00:50:56.583Z,88.37
2018-09-06T00:51:56.603Z,88.46
2018-09-06T00:52:56.626Z,88.42
2018-09-06T00:53:56.643Z,87.45
2018-09-06T00:54:56.660Z,87.60
2018-09-06T00:55:56.689Z,87.88
2018-09-06T00:56:56.704Z,89.04
2018-09-06T00:57:56.716Z,88.56
2018-09-06T00:58:56.741Z,88.17
2018-09-06T00:59:56.760Z,88.65
2018-09-06T01:00:56.778Z,88.46
2018-09-06T01:01:56.801Z,88.56
2018-09-06T01:02:56.815Z,87.88
2018-09-06T01:03:56.832Z,87.35
2018-09-06T01:04:56.856Z,86.40
2018-09-06T01:05:56.872Z,86.78
2018-09-06T01:06:56.896Z,86.83
2018-09-06T01:07:56.910Z,86.83
2018-09-06T01:08:56.934Z,86.40
2018-09-06T01:09:56.951Z,86.49
2018-09-06T01:10:56.969Z,86.64
2018-09-06T01:11:56.988Z,86.21
2018-09-06T01:12:57.008Z,86.83
2018-09-06T01:13:57.028Z,87.70
2018-09-06T01:14:57.045Z,87.70
2018-09-06T01:15:57.066Z,88.99
2018-09-06T01:16:57.084Z,89.42
2018-09-06T01:17:57.105Z,88.37
2018-09-06T01:18:57.124Z,87.60
2018-09-06T01:19:57.140Z,86.93
2018-09-06T01:20:57.162Z,87.12
2018-09-06T01:21:57.178Z,87.60
2018-09-06T01:22:57.196Z,88.99
2018-09-06T01:23:57.219Z,88.42
2018-09-06T01:24:57.235Z,88.27
2018-09-06T01:25:57.255Z,88.65
2018-09-06T01:26:57.285Z,88.65
2018-09-06T01:27:57.377Z,88.27
2018-09-06T01:28:57.334Z,88.61
2018-09-06T01:29:57.569Z,89.28
2018-09-06T01:30:57.400Z,88.75
2018-09-06T01:31:57.433Z,87.98
2018-09-06T01:32:57.521Z,87.60
2018-09-06T01:33:57.454Z,87.02
2018-09-06T01:34:57.605Z,86.64
2018-09-06T01:35:57.454Z,87.31
2018-09-06T01:36:57.489Z,86.74
2018-09-06T01:37:57.539Z,86.74
2018-09-06T01:38:57.515Z,87.31
2018-09-06T01:39:57.556Z,87.79
2018-09-06T01:40:57.543Z,87.98
2018-09-06T01:41:57.562Z,88.13
2018-09-06T01:42:57.612Z,88.51
2018-09-06T01:43:57.608Z,88.23
2018-09-06T01:44:57.626Z,89.18
2018-09-06T01:45:57.637Z,90.14
2018-09-06T01:46:57.664Z,89.37
2018-09-06T01:47:57.694Z,89.18
2018-09-06T01:48:57.709Z,89.95
2018-09-06T01:49:57.716Z,90.09
2018-09-06T01:50:57.737Z,90.23
2018-09-06T01:51:57.755Z,89.09
2018-09-06T01:52:57.779Z,88.70
2018-09-06T01:53:57.791Z,88.08
2018-09-06T01:54:57.809Z,88.61
2018-09-06T01:55:57.834Z,88.32
2018-09-06T01:56:57.850Z,88.80
2018-09-06T01:57:57.913Z,88.99
2018-09-06T01:58:57.885Z,88.61
2018-09-06T01:59:57.909Z,88.03
2018-09-06T02:00:57.925Z,88.08
2018-09-06T02:01:58.109Z,88.32
2018-09-06T02:02:58.016Z,88.80
2018-09-06T02:03:57.982Z,87.98
2018-09-06T02:04:57.996Z,87.55
2018-09-06T02:05:58.024Z,87.94
2018-09-06T02:06:58.040Z,87.41
2018-09-06T02:07:58.059Z,88.03
2018-09-06T02:08:58.084Z,87.37
2018-09-06T02:09:58.092Z,87.88
2018-09-06T02:10:58.116Z,87.41
2018-09-06T02:11:58.133Z,86.93
2018-09-06T02:12:58.152Z,86.74
2018-09-06T02:13:58.168Z,86.25
2018-09-06T02:14:58.194Z,87.37
2018-09-06T02:15:58.207Z,88.42
2018-09-06T02:16:58.225Z,88.32
2018-09-06T02:17:58.244Z,87.88
2018-09-06T02:18:58.263Z,87.31
2018-09-06T02:19:58.284Z,87.46
2018-09-06T02:20:58.304Z,87.65
2018-09-06T02:21:58.322Z,88.99
2018-09-06T02:22:58.342Z,89.18
2018-09-06T02:23:58.360Z,88.61
2018-09-06T02:24:58.379Z,88.61
2018-09-06T02:25:58.397Z,88.51
2018-09-06T02:26:58.425Z,89.18
2018-09-06T02:27:58.434Z,88.80
2018-09-06T02:28:58.452Z,90.09
2018-09-06T02:29:58.474Z,89.76
2018-09-06T02:30:58.495Z,89.18
2018-09-06T02:31:58.511Z,90.19
2018-09-06T02:32:58.531Z,90.39
2018-09-06T02:33:58.553Z,90.58
2018-09-06T02:34:58.570Z,90.23
2018-09-06T02:35:58.588Z,89.09
2018-09-06T02:36:58.609Z,89.37
2018-09-06T02:37:58.625Z,88.23
2018-09-06T02:38:58.645Z,88.99
2018-09-06T02:39:58.662Z,88.70
2018-09-06T02:40:58.684Z,89.14
2018-09-06T02:41:58.706Z,90.05
2018-09-06T02:42:58.718Z,89.66
2018-09-06T02:43:58.739Z,88.42
2018-09-06T02:44:58.756Z,88.61
2018-09-06T02:45:58.781Z,88.32
2018-09-06T02:46:58.799Z,88.80
2018-09-06T02:47:58.814Z,89.23
2018-09-06T02:48:58.832Z,89.28
2018-09-06T02:49:58.852Z,89.47
2018-09-06T02:50:58.870Z,88.42
2018-09-06T02:51:58.889Z,88.42
2018-09-06T02:52:58.987Z,87.74
2018-09-06T02:53:59.003Z,88.85
2018-09-06T02:54:58.950Z,90.96
2018-09-06T02:55:58.965Z,90.09
2018-09-06T02:56:58.987Z,90.09
2018-09-06T02:57:59.002Z,90.19
2018-09-06T02:58:59.020Z,90.48
2018-09-06T02:59:59.038Z,90.96
2018-09-06T03:00:59.176Z,90.67
2018-09-06T03:01:59.094Z,90.05
2018-09-06T03:02:59.149Z,90.29
2018-09-06T03:03:59.125Z,90.39
2018-09-06T03:04:59.135Z,89.76
2018-09-06T03:05:59.157Z,88.99
2018-09-06T03:06:59.171Z,89.57
2018-09-06T03:07:59.193Z,90.39
2018-09-06T03:08:59.220Z,89.90
2018-09-06T03:09:59.234Z,90.86
2018-09-06T03:10:59.245Z,90.58
2018-09-06T03:11:59.264Z,90.86
2018-09-06T03:12:59.283Z,90.09
2018-09-06T03:13:59.303Z,90.23
2018-09-06T03:14:59.321Z,90.67
2018-09-06T03:15:59.340Z,90.00
2018-09-06T03:16:59.363Z,89.18
2018-09-06T03:17:59.387Z,88.61
2018-09-06T03:18:59.406Z,88.23
2018-09-06T03:19:59.416Z,88.80
2018-09-06T03:20:59.433Z,88.51
2018-09-06T03:21:59.453Z,88.51
2018-09-06T03:22:59.473Z,88.23
2018-09-06T03:23:59.486Z,89.90
2018-09-06T03:24:59.509Z,89.95
2018-09-06T03:25:59.527Z,89.04
2018-09-06T03:26:59.546Z,88.76
2018-09-06T03:27:59.566Z,88.61
2018-09-06T03:28:59.582Z,88.99
2018-09-06T03:29:59.605Z,88.32
2018-09-06T03:30:59.620Z,88.61
2018-09-06T03:31:59.643Z,88.80
2018-09-06T03:32:59.660Z,88.70
2018-09-06T03:33:59.675Z,88.51
2018-09-06T03:34:59.713Z,88.32
2018-09-06T03:35:59.779Z,88.03
2018-09-06T03:36:59.731Z,88.23
2018-09-06T03:37:59.751Z,90.00
2018-09-06T03:38:59.769Z,91.97
2018-09-06T03:39:59.791Z,91.97
2018-09-06T03:40:59.809Z,92.63
2018-09-06T03:41:59.828Z,93.21
2018-09-06T03:42:59.857Z,93.02
2018-09-06T03:43:59.864Z,93.64
2018-09-06T03:44:59.881Z,94.79
2018-09-06T03:45:59.899Z,93.69
2018-09-06T03:46:59.919Z,93.02
2018-09-06T03:47:59.940Z,91.44
2018-09-06T03:48:59.959Z,90.39
2018-09-06T03:49:59.976Z,91.39
2018-09-06T03:50:59.994Z,91.53
2018-09-06T03:52:00.012Z,91.58
2018-09-06T03:53:00.030Z,92.83
2018-09-06T03:54:00.048Z,91.87
2018-09-06T03:55:00.072Z,90.67
2018-09-06T03:56:00.088Z,90.19
2018-09-06T03:57:00.106Z,89.81
2018-09-06T03:58:00.127Z,91.11
2018-09-06T03:59:00.146Z,91.20
2018-09-06T04:00:00.159Z,91.58
2018-09-06T04:01:00.181Z,92.54
2018-09-06T04:02:00.205Z,92.44
2018-09-06T04:03:00.216Z,91.97
2018-09-06T04:04:00.235Z,91.97
2018-09-06T04:05:00.256Z,91.58
2018-09-06T04:06:00.282Z,91.58
2018-09-06T04:07:00.292Z,91.87
2018-09-06T04:08:00.309Z,91.68
2018-09-06T04:09:00.330Z,91.39
2018-09-06T04:10:00.348Z,91.53
2018-09-06T04:11:00.367Z,90.96
2018-09-06T04:12:00.381Z,90.58
2018-09-06T04:13:00.404Z,90.86
2018-09-06T04:14:00.422Z,91.30
2018-09-06T04:15:00.453Z,91.11
2018-09-06T04:16:00.463Z,89.90
2018-09-06T04:17:00.477Z,90.29
2018-09-06T04:18:00.494Z,89.81
2018-09-06T04:19:00.513Z,90.39
2018-09-06T04:20:00.534Z,90.91
2018-09-06T04:21:00.555Z,91.05
2018-09-06T04:22:00.571Z,90.48
2018-09-06T04:23:00.600Z,90.67
2018-09-06T04:24:00.606Z,89.23
2018-09-06T04:25:00.627Z,88.95
2018-09-06T04:26:00.647Z,89.14
2018-09-06T04:27:00.663Z,89.09
2018-09-06T04:28:00.690Z,89.14
2018-09-06T04:29:00.698Z,89.81
2018-09-06T04:30:00.723Z,91.39
2018-09-06T04:31:00.738Z,91.58
2018-09-06T04:32:00.757Z,92.73
2018-09-06T04:33:00.775Z,93.84
2018-09-06T04:34:00.794Z,95.27
2018-09-06T04:35:00.810Z,95.56
2018-09-06T04:36:00.886Z,94.93
2018-09-06T04:37:00.851Z,94.36
2018-09-06T04:38:00.866Z,94.12
2018-09-06T04:39:00.891Z,93.21
2018-09-06T04:40:00.905Z,93.02
2018-09-06T04:41:00.929Z,92.35
2018-09-06T04:42:00.942Z,92.49
2018-09-06T04:43:00.961Z,92.63
2018-09-06T04:44:00.996Z,92.63
2018-09-06T04:45:00.999Z,93.02
2018-09-06T04:46:01.015Z,92.16
2018-09-06T04:47:01.050Z,93.50
2018-09-06T04:48:01.052Z,92.25
2018-09-06T04:49:01.071Z,91.30
2018-09-06T04:50:01.100Z,91.97
2018-09-06T04:51:01.115Z,92.92
2018-09-06T04:52:01.127Z,92.44
2018-09-06T04:53:01.145Z,91.97
2018-09-06T04:54:01.162Z,93.12
2018-09-06T04:55:01.180Z,92.73
2018-09-06T04:56:01.203Z,92.06
2018-09-06T04:57:01.220Z,91.97
2018-09-06T04:58:01.240Z,92.25
2018-09-06T04:59:01.259Z,91.87
2018-09-06T05:00:01.277Z,92.01
2018-09-06T05:01:01.295Z,92.01
2018-09-06T05:02:01.313Z,93.30
2018-09-06T05:03:01.331Z,93.98
2018-09-06T05:04:01.388Z,93.02
2018-09-06T05:05:01.369Z,92.73
2018-09-06T05:06:01.387Z,93.21
2018-09-06T05:07:01.406Z,93.88
2018-09-06T05:08:01.424Z,93.40
2018-09-06T05:09:01.445Z,91.92
2018-09-06T05:10:01.465Z,90.67
2018-09-06T05:11:01.483Z,90.00
2018-09-06T05:12:01.503Z,89.86
2018-09-06T05:13:01.520Z,90.86
2018-09-06T05:14:01.537Z,90.67
2018-09-06T05:15:01.559Z,88.99
2018-09-06T05:16:01.583Z,89.18
2018-09-06T05:17:01.592Z,89.37
2018-09-06T05:18:01.613Z,89.28
2018-09-06T05:19:01.628Z,89.37
2018-09-06T05:20:01.648Z,90.05
2018-09-06T05:21:01.673Z,88.51
2018-09-06T05:22:01.737Z,88.42
2018-09-06T05:23:01.707Z,87.94
2018-09-06T05:24:01.769Z,88.42
2018-09-06T05:25:01.748Z,88.42
2018-09-06T05:26:01.761Z,88.37
2018-09-06T05:27:01.781Z,86.49
2018-09-06T05:28:01.798Z,85.15
2018-09-06T05:29:01.818Z,84.33
2018-09-06T05:30:01.854Z,83.27
2018-09-06T05:31:01.855Z,82.31
2018-09-06T05:32:01.874Z,83.18
2018-09-06T05:33:01.892Z,83.23
2018-09-06T05:34:01.921Z,84.48
2018-09-06T05:35:01.949Z,84.67
2018-09-06T05:36:01.995Z,83.91
2018-09-06T05:37:01.973Z,84.28
2018-09-06T05:38:02.034Z,84.09
2018-09-06T05:39:02.009Z,84.67
2018-09-06T05:40:02.030Z,86.54
2018-09-06T05:41:02.051Z,86.74
2018-09-06T05:42:02.070Z,85.92
2018-09-06T05:43:02.097Z,85.38
2018-09-06T05:44:02.130Z,84.52
2018-09-06T05:45:02.148Z,83.22
2018-09-06T05:46:02.175Z,81.72
2018-09-06T05:47:02.180Z,81.48
2018-09-06T05:48:02.182Z,79.60
2018-09-06T05:49:02.203Z,77.76
2018-09-06T05:50:02.225Z,76.56
2018-09-06T05:51:02.247Z,75.79
2018-09-06T05:52:02.274Z,75.54
2018-09-06T05:53:02.287Z,74.29
2018-09-06T05:54:02.304Z,73.71
2018-09-06T05:55:02.327Z,73.99
2018-09-06T05:56:02.348Z,73.71
2018-09-06T05:57:02.369Z,74.19
2018-09-06T05:58:02.440Z,74.76
2018-09-06T05:59:02.412Z,73.61
2018-09-06T06:00:02.497Z,73.46
2018-09-06T06:01:02.456Z,73.07
2018-09-06T06:02:02.480Z,72.08
2018-09-06T06:03:02.500Z,70.67
2018-09-06T06:04:02.524Z,68.59
2018-09-06T06:05:02.544Z,68.65
2018-09-06T06:06:02.566Z,68.74
2018-09-06T06:07:02.595Z,68.61
2018-09-06T06:08:02.672Z,69.67
2018-09-06T06:09:02.633Z,68.96
2018-09-06T06:10:02.655Z,70.95
2018-09-06T06:11:02.680Z,73.07
2018-09-06T06:12:02.748Z,72.14
2018-09-06T06:13:02.734Z,71.22
2018-09-06T06:14:02.745Z,69.80
2018-09-06T06:15:02.769Z,68.13
2018-09-06T06:16:02.852Z,66.33
2018-09-06T06:17:02.818Z,64.14
2018-09-06T06:18:02.837Z,63.50
2018-09-06T06:19:02.861Z,63.40
2018-09-06T06:20:02.974Z,62.56
2018-09-06T06:21:02.908Z,61.72
2018-09-06T06:22:02.930Z,60.37
2018-09-06T06:23:02.954Z,60.01
2018-09-06T06:24:02.980Z,58.11
2018-09-06T06:25:03.002Z,57.91
2018-09-06T06:26:03.045Z,57.84
2018-09-06T06:27:03.052Z,56.25
2018-09-06T06:28:03.226Z,55.87
2018-09-06T06:29:03.145Z,55.60
2018-09-06T06:30:03.127Z,54.56
2018-09-06T06:31:03.148Z,52.76
2018-09-06T06:32:03.170Z,53.08
2018-09-06T06:33:03.195Z,53.91
2018-09-06T06:34:03.258Z,52.35
2018-09-06T06:35:03.260Z,52.28
2018-09-06T06:36:03.270Z,51.50
2018-09-06T06:37:03.300Z,51.21
2018-09-06T06:38:03.325Z,51.31
2018-09-06T06:39:03.349Z,51.33
2018-09-06T06:40:03.375Z,50.75
2018-09-06T06:41:03.415Z,51.04
2018-09-06T06:42:03.424Z,50.68
2018-09-06T06:43:03.453Z,50.80
2018-09-06T06:44:04.204Z,53.39
2018-09-06T06:45:03.505Z,54.31
2018-09-06T06:46:03.543Z,55.16
2018-09-06T06:47:03.552Z,56.00
2018-09-06T06:48:03.595Z,56.59
2018-09-06T06:49:03.604Z,55.96
2018-09-06T06:50:03.627Z,54.75
2018-09-06T06:51:03.654Z,53.13
2018-09-06T06:52:03.681Z,52.76
2018-09-06T06:53:03.706Z,51.40
2018-09-06T06:54:03.737Z,52.15
2018-09-06T06:55:03.761Z,52.35
2018-09-06T06:56:03.782Z,51.31
2018-09-06T06:57:03.809Z,50.29
2018-09-06T06:58:03.838Z,50.19
2018-09-06T06:59:03.860Z,50.16
2018-09-06T07:00:03.889Z,51.21
2018-09-06T07:01:03.976Z,50.56
2018-09-06T07:02:03.945Z,51.14
2018-09-06T07:03:03.970Z,51.14
2018-09-06T07:04:04.007Z,51.97
2018-09-06T07:05:04.023Z,52.57
2018-09-06T07:06:04.047Z,51.17
2018-09-06T07:07:04.137Z,49.83
2018-09-06T07:08:04.104Z,48.51
2018-09-06T07:09:04.132Z,48.14
2018-09-06T07:10:04.155Z,47.00
2018-09-06T07:11:04.192Z,46.51
2018-09-06T07:12:04.207Z,47.49
2018-09-06T07:13:04.235Z,46.24
2018-09-06T07:14:04.264Z,45.19
2018-09-06T07:15:04.287Z,44.34
2018-09-06T07:16:04.317Z,44.41
2018-09-06T07:17:04.345Z,44.31
2018-09-06T07:18:04.377Z,43.85
2018-09-06T07:19:04.400Z,43.49
2018-09-06T07:20:04.425Z,42.61
2018-09-06T07:21:04.490Z,42.36
2018-09-06T07:22:04.482Z,43.24
2018-09-06T07:23:04.512Z,45.92
2018-09-06T07:24:04.539Z,47.15
2018-09-06T07:25:04.621Z,48.80
2018-09-06T07:26:04.595Z,50.48
2018-09-06T07:27:04.621Z,50.80
2018-09-06T07:28:04.648Z,51.39
2018-09-06T07:29:04.706Z,51.45
2018-09-06T07:30:04.719Z,52.43
2018-09-06T07:31:04.738Z,50.99
2018-09-06T07:32:04.756Z,50.53
2018-09-06T07:33:04.790Z,50.43
2018-09-06T07:34:04.816Z,49.10
2018-09-06T07:35:04.879Z,48.78
2018-09-06T07:36:04.872Z,49.58
2018-09-06T07:37:04.904Z,49.39
2018-09-06T07:38:04.927Z,49.27
2018-09-06T07:39:04.955Z,47.73
2018-09-06T07:40:04.987Z,47.42
2018-09-06T07:41:05.028Z,47.83
2018-09-06T07:42:05.043Z,45.12
2018-09-06T07:43:05.067Z,41.96
2018-09-06T07:44:05.100Z,41.70
2018-09-06T07:45:05.127Z,42.75
2018-09-06T07:46:05.153Z,43.48
2018-09-06T07:47:05.187Z,41.88
2018-09-06T07:48:05.224Z,40.48
2018-09-06T07:49:05.237Z,38.35
2018-09-06T07:50:05.325Z,36.62
2018-09-06T07:51:05.296Z,36.07
2018-09-06T07:52:05.334Z,35.18
2018-09-06T07:53:05.353Z,35.52
2018-09-06T07:54:05.511Z,38.28
2018-09-06T07:55:05.425Z,39.22
2018-09-06T07:56:05.443Z,38.10
2018-09-06T07:57:05.481Z,37.43
2018-09-06T07:58:05.497Z,37.92
2018-09-06T07:59:05.530Z,36.96
2018-09-06T08:00:05.555Z,36.42
2018-09-06T08:01:05.584Z,35.47
2018-09-06T08:02:05.610Z,34.97
2018-09-06T08:03:05.641Z,35.06
2018-09-06T08:04:05.673Z,35.52
2018-09-06T08:05:05.698Z,38.08
2018-09-06T08:06:05.726Z,39.96
2018-09-06T08:07:05.757Z,40.17
2018-09-06T08:08:05.784Z,39.94
2018-09-06T08:09:05.815Z,37.94
2018-09-06T08:10:05.854Z,36.37
2018-09-06T08:11:05.873Z,36.05
2018-09-06T08:12:05.919Z,35.38
2018-09-06T08:13:05.930Z,33.84
2018-09-06T08:14:05.957Z,33.34
2018-09-06T08:15:05.988Z,33.03
2018-09-06T08:16:06.016Z,34.20
2018-09-06T08:17:06.042Z,34.74
2018-09-06T08:18:06.074Z,38.75
2018-09-06T08:19:06.101Z,40.31
2018-09-06T08:20:06.134Z,37.33
2018-09-06T08:21:06.162Z,38.90
2018-09-06T08:22:06.191Z,40.97
2018-09-06T08:23:06.215Z,42.93
2018-09-06T08:24:06.247Z,41.97
2018-09-06T08:25:06.271Z,40.88
2018-09-06T08:26:06.300Z,38.37
2018-09-06T08:27:06.334Z,38.16
2018-09-06T08:28:06.353Z,38.37
2018-09-06T08:29:06.380Z,39.88
2018-09-06T08:30:06.407Z,40.08
2018-09-06T08:31:06.522Z,39.31
2018-09-06T08:32:06.463Z,38.84
2018-09-06T08:33:06.487Z,39.04
2018-09-06T08:34:06.516Z,41.75
2018-09-06T08:35:06.562Z,43.93
2018-09-06T08:36:06.565Z,43.95
2018-09-06T08:37:06.597Z,43.76
2018-09-06T08:38:06.619Z,43.27
2018-09-06T08:39:06.647Z,42.54
2018-09-06T08:40:06.671Z,42.34
2018-09-06T08:41:06.697Z,42.14
2018-09-06T08:42:06.722Z,43.52
2018-09-06T08:43:06.748Z,43.54
2018-09-06T08:44:06.776Z,44.01
2018-09-06T08:45:06.800Z,44.79
2018-09-06T08:46:06.826Z,45.52
2018-09-06T08:47:06.870Z,46.13
2018-09-06T08:48:06.872Z,44.81
2018-09-06T08:49:06.900Z,45.64
2018-09-06T08:50:06.926Z,46.40
2018-09-06T08:51:06.950Z,47.05
2018-09-06T08:52:07.037Z,47.23
2018-09-06T08:53:06.999Z,47.98
2018-09-06T08:54:07.024Z,48.00
2018-09-06T08:55:07.055Z,48.49
2018-09-06T08:56:07.083Z,48.30
2018-09-06T08:57:07.101Z,49.22
2018-09-06T08:58:07.121Z,49.71
2018-09-06T08:59:07.165Z,50.12
2018-09-06T09:00:07.173Z,50.29
2018-09-06T09:01:07.218Z,50.58
2018-09-06T09:02:07.306Z,50.60
2018-09-06T09:03:07.289Z,50.41
2018-09-06T09:04:07.320Z,49.85
2018-09-06T09:05:07.294Z,49.90
2018-09-06T09:06:07.363Z,50.29
2018-09-06T09:07:07.342Z,49.54
2018-09-06T09:08:07.366Z,50.48
2018-09-06T09:09:07.390Z,50.12
2018-09-06T09:10:07.414Z,49.73
2018-09-06T09:11:07.439Z,49.56
2018-09-06T09:12:07.459Z,49.07
2018-09-06T09:13:07.490Z,49.85
2018-09-06T09:14:07.512Z,49.44
2018-09-06T09:15:07.535Z,49.76
2018-09-06T09:16:07.606Z,49.37
2018-09-06T09:17:07.582Z,49.17
2018-09-06T09:18:07.610Z,48.61
2018-09-06T09:19:07.633Z,49.92
2018-09-06T09:20:07.653Z,50.38
2018-09-06T09:21:07.676Z,49.95
2018-09-06T09:22:07.797Z,49.73
2018-09-06T09:23:07.727Z,49.24
2018-09-06T09:24:07.753Z,49.90
2018-09-06T09:25:07.772Z,51.04
2018-09-06T09:26:07.925Z,50.77
2018-09-06T09:27:07.848Z,51.26
2018-09-06T09:28:07.844Z,51.18
2018-09-06T09:29:07.875Z,50.24
2018-09-06T09:30:07.910Z,49.76
2018-09-06T09:31:07.923Z,50.63
2018-09-06T09:32:07.936Z,49.63
2018-09-06T09:33:07.962Z,49.66
2018-09-06T09:34:07.988Z,49.76
2018-09-06T09:35:08.020Z,48.07
2018-09-06T09:36:08.093Z,47.30
2018-09-06T09:37:08.061Z,46.25
2018-09-06T09:38:08.082Z,47.37
2018-09-06T09:39:08.109Z,48.34
2018-09-06T09:40:08.135Z,48.71
2018-09-06T09:41:08.154Z,49.61
2018-09-06T09:42:08.202Z,48.51
2018-09-06T09:43:08.231Z,49.68
2018-09-06T09:44:08.226Z,49.17
2018-09-06T09:45:08.257Z,50.21
2018-09-06T09:47:40.134Z,48.73
2018-09-06T09:48:40.127Z,48.22
2018-09-06T09:50:54.218Z,49.39
2018-09-06T09:52:38.188Z,49.10
2018-09-06T09:53:38.140Z,49.90
2018-09-06T09:55:31.235Z,49.58
2018-09-06T09:56:31.246Z,49.49
2018-09-06T09:58:24.383Z,48.63
2018-09-06T09:59:24.362Z,47.96
2018-09-06T10:01:17.448Z,47.78
2018-09-06T10:02:17.467Z,47.34
2018-09-06T10:04:10.592Z,49.66
2018-09-06T10:05:10.580Z,49.95
2018-09-06T10:07:03.670Z,50.14
2018-09-06T10:08:03.684Z,50.56
2018-09-06T10:09:57.317Z,49.27
2018-09-06T10:10:57.282Z,50.41
2018-09-06T10:12:50.420Z,48.78
2018-09-06T10:13:50.386Z,49.85
2018-09-06T10:15:43.479Z,49.29
2018-09-06T10:16:43.524Z,49.19
2018-09-06T10:18:36.605Z,49.78
2018-09-06T10:19:36.603Z,48.83
2018-09-06T10:21:29.690Z,48.46
2018-09-06T10:22:29.704Z,48.56
2018-09-06T10:24:23.814Z,47.49
2018-09-06T10:25:23.806Z,48.49
2018-09-06T10:27:16.946Z,47.20
2018-09-06T10:28:16.961Z,47.78
2018-09-06T10:30:10.132Z,47.10
2018-09-06T10:31:10.106Z,47.71
2018-09-06T10:33:04.217Z,46.00
2018-09-06T10:34:04.210Z,45.25
2018-09-06T10:35:57.304Z,44.27
2018-09-06T10:36:57.438Z,43.32
2018-09-06T10:38:50.432Z,43.22
2018-09-06T10:39:50.477Z,43.73
2018-09-06T10:41:43.522Z,42.05
2018-09-06T10:42:43.546Z,43.19
2018-09-06T10:44:37.057Z,43.41
2018-09-06T10:45:36.765Z,43.61
2018-09-06T10:47:29.761Z,45.51
2018-09-06T10:48:29.769Z,44.27
2018-09-06T10:50:22.885Z,44.07
2018-09-06T10:51:22.869Z,44.83
2018-09-06T10:53:17.003Z,44.71
2018-09-06T10:54:16.963Z,45.20
2018-09-06T10:56:10.054Z,44.90
2018-09-06T10:57:10.079Z,44.90
2018-09-06T10:59:03.192Z,46.32
2018-09-06T11:00:03.175Z,47.69
2018-09-06T11:02:08.128Z,46.25
2018-09-06T11:03:08.138Z,47.03
2018-09-06T11:05:01.306Z,46.64
2018-09-06T11:06:01.263Z,47.32
2018-09-06T11:07:54.373Z,47.49
2018-09-06T11:08:54.359Z,48.34
2018-09-06T11:10:47.491Z,47.22
2018-09-06T11:11:47.473Z,46.91
2018-09-06T11:13:40.611Z,47.59
2018-09-06T11:14:40.589Z,47.98
2018-09-06T11:16:33.686Z,49.05
2018-09-06T11:17:33.818Z,48.56
2018-09-06T11:19:26.832Z,49.22
2018-09-06T11:20:26.821Z,49.41
2018-09-06T11:22:20.004Z,49.24
2018-09-06T11:23:19.909Z,48.73
2018-09-06T11:25:13.024Z,49.41
2018-09-06T11:26:13.018Z,49.41
2018-09-06T11:28:07.603Z,49.51
2018-09-06T11:29:07.627Z,49.61
2018-09-06T11:31:00.765Z,49.61
2018-09-06T11:32:00.759Z,50.07
2018-09-06T11:33:54.881Z,49.61
2018-09-06T11:34:54.860Z,48.73
2018-09-06T11:36:47.953Z,48.83
2018-09-06T11:37:47.948Z,48.44
2018-09-06T11:39:41.080Z,49.41
2018-09-06T11:40:41.078Z,48.85
2018-09-06T11:41:41.090Z,49.22
2018-09-06T11:42:41.123Z,48.85
2018-09-06T11:43:41.147Z,48.36
2018-09-06T11:44:41.174Z,48.36
2018-09-06T11:45:41.186Z,48.46
2018-09-06T11:46:41.226Z,48.85
2018-09-06T11:47:41.381Z,49.15
2018-09-06T11:48:41.277Z,49.15
2018-09-06T11:49:41.302Z,48.39
2018-09-06T11:50:41.310Z,47.52
2018-09-06T11:51:41.373Z,47.71
2018-09-06T11:52:41.359Z,48.36
2018-09-06T11:53:41.391Z,47.71
2018-09-06T11:54:41.406Z,47.59
2018-09-06T11:55:41.435Z,48.36
2018-09-06T11:56:41.457Z,47.52
2018-09-06T11:57:41.478Z,46.56
2018-09-06T11:58:41.496Z,46.56
2018-09-06T11:59:41.526Z,46.49
2018-09-06T12:00:41.561Z,46.86
2018-09-06T12:01:41.584Z,46.54
2018-09-06T12:02:41.600Z,47.61
2018-09-06T12:03:41.622Z,46.86
2018-09-06T12:04:41.646Z,46.54
2018-09-06T12:05:41.682Z,47.03
2018-09-06T12:06:41.704Z,46.47
2018-09-06T12:07:41.716Z,46.00
2018-09-06T12:08:41.749Z,45.71
2018-09-06T12:09:41.772Z,45.54
2018-09-06T12:10:41.807Z,45.51
2018-09-06T12:11:41.823Z,45.44
2018-09-06T12:12:41.839Z,45.17
2018-09-06T12:13:41.908Z,45.05
2018-09-06T12:14:41.901Z,45.44
2018-09-06T12:15:41.912Z,45.26
2018-09-06T12:16:41.944Z,45.15
2018-09-06T12:17:41.968Z,45.07
2018-09-06T12:18:42.004Z,44.83
2018-09-06T12:19:42.014Z,46.27
2018-09-06T12:20:42.034Z,47.03
2018-09-06T12:21:42.059Z,46.49
2018-09-06T12:22:42.084Z,46.02
2018-09-06T12:23:42.104Z,45.64
2018-09-06T12:24:42.139Z,45.88
2018-09-06T12:25:42.231Z,46.49
2018-09-06T12:26:42.180Z,46.20
2018-09-06T12:27:42.203Z,46.22
2018-09-06T12:28:42.239Z,45.56
2018-09-06T12:29:42.261Z,44.19
2018-09-06T12:30:42.276Z,44.85
2018-09-06T12:31:42.301Z,44.87
2018-09-06T12:32:42.371Z,44.87
2018-09-06T12:33:42.417Z,44.12
2018-09-06T12:34:42.380Z,43.51
2018-09-06T12:35:42.400Z,43.71
2018-09-06T12:36:42.427Z,43.99
2018-09-06T12:37:42.451Z,43.53
2018-09-06T12:38:42.516Z,43.88
2018-09-06T12:39:42.501Z,44.66
2018-09-06T12:40:42.524Z,45.15
2018-09-06T12:41:42.550Z,44.56
2018-09-06T12:42:42.574Z,44.09
2018-09-06T12:43:42.597Z,43.32
2018-09-06T12:44:42.623Z,43.59
2018-09-06T12:45:42.644Z,44.95
2018-09-06T12:46:42.693Z,45.34
2018-09-06T12:47:42.692Z,45.90
2018-09-06T12:48:42.720Z,45.36
2018-09-06T12:49:42.792Z,45.83
2018-09-06T12:50:42.780Z,44.95
2018-09-06T12:51:42.803Z,45.22
2018-09-06T12:52:42.827Z,47.07
2018-09-06T12:53:42.846Z,47.29
2018-09-06T12:54:42.886Z,47.17
2018-09-06T12:55:42.901Z,47.63
2018-09-06T12:56:42.939Z,48.78
2018-09-06T12:57:42.942Z,47.92
2018-09-06T12:58:42.971Z,47.73
2018-09-06T12:59:42.991Z,48.41
2018-09-06T13:00:43.019Z,47.68
2018-09-06T13:01:43.044Z,48.14
2018-09-06T13:02:43.073Z,49.29
2018-09-06T13:03:43.094Z,49.19
2018-09-06T13:04:43.116Z,48.83
2018-09-06T13:05:43.144Z,49.12
2018-09-06T13:06:43.164Z,48.90
2018-09-06T13:07:43.183Z,50.31
2018-09-06T13:08:43.217Z,51.29
2018-09-06T13:09:43.239Z,50.41
2018-09-06T13:10:43.278Z,50.24
2018-09-06T13:11:43.290Z,50.60
2018-09-06T13:12:43.314Z,51.65
2018-09-06T13:13:43.352Z,52.43
2018-09-06T13:14:43.360Z,51.67
2018-09-06T13:15:43.379Z,50.43
2018-09-06T13:16:43.411Z,51.48
2018-09-06T13:17:43.434Z,51.31
2018-09-06T13:18:43.672Z,51.21
2018-09-06T13:19:43.479Z,50.82
2018-09-06T13:20:43.505Z,50.46
2018-09-06T13:21:43.530Z,52.53
2018-09-06T13:22:43.569Z,52.45
2018-09-06T13:23:43.584Z,51.80
2018-09-06T13:24:43.607Z,51.97
2018-09-06T13:25:43.633Z,51.51
2018-09-06T13:26:43.661Z,51.97
2018-09-06T13:27:43.678Z,53.33
2018-09-06T13:28:43.707Z,53.08
2018-09-06T13:29:43.740Z,53.04